Terminal Aerodrome Forecast
Issued by NWS

Home | Current Version | Previous Version | Text Only | Print | Product List | Glossary On
Versions: 1 2 3 4 5 6 7 8 9 10 11 12 13 14 15
000
FTUS41 KBOX 200525
TAFACK
TAF
KACK 200525Z 2006/2106 30014KT P6SM -SHRA SCT020 OVC060
     FM201200 30014KT P6SM SCT060
     FM201600 30015G25KT P6SM SCT060
     FM210100 31012KT P6SM SKC=

USA.gov is the U.S. government's official web portal to all federal, state and local government web resources and services.